createdAt,value
2018-02-20T00:02:25.066Z,100853
2018-02-20T00:04:53.306Z,100847
2018-02-20T00:07:21.823Z,100846
2018-02-20T00:09:50.106Z,100849
2018-02-20T00:12:18.381Z,100839
2018-02-20T00:14:46.682Z,100844
2018-02-20T00:17:14.929Z,100837
2018-02-20T00:19:43.190Z,100832
2018-02-20T00:22:11.461Z,100839
2018-02-20T00:24:39.720Z,100829
2018-02-20T00:27:08.753Z,100833
2018-02-20T00:29:37.015Z,100834
2018-02-20T00:32:05.289Z,100833
2018-02-20T00:34:33.525Z,100832
2018-02-20T00:37:02.566Z,100824
2018-02-20T00:39:30.893Z,100827
2018-02-20T00:41:59.118Z,100826
2018-02-20T00:44:27.344Z,100827
2018-02-20T00:46:55.957Z,100825
2018-02-20T00:49:24.209Z,100831
2018-02-20T00:51:53.218Z,100833
2018-02-20T00:54:22.287Z,100830
2018-02-20T00:56:50.523Z,100824
2018-02-20T00:59:18.774Z,100820
2018-02-20T01:01:47.099Z,100824
2018-02-20T01:04:15.353Z,100825
2018-02-20T01:06:43.611Z,100828
2018-02-20T01:09:11.959Z,100824
2018-02-20T01:11:40.969Z,100822
2018-02-20T01:14:09.238Z,100821
2018-02-20T01:16:38.319Z,100818
2018-02-20T01:19:07.349Z,100819
2018-02-20T01:21:35.680Z,100823
2018-02-20T01:24:03.926Z,100815
2018-02-20T01:26:32.185Z,100817
2018-02-20T01:29:00.456Z,100824
2018-02-20T01:31:28.704Z,100821
2018-02-20T01:33:57.711Z,100817
2018-02-20T01:36:26.126Z,100813
2018-02-20T01:38:54.401Z,100814
2018-02-20T01:41:22.633Z,100816
2018-02-20T01:43:50.896Z,100807
2018-02-20T01:46:19.889Z,100810
2018-02-20T01:48:48.190Z,100805
2018-02-20T01:51:17.159Z,100812
2018-02-20T01:53:46.180Z,100807
2018-02-20T01:56:14.427Z,100806
2018-02-20T01:58:43.542Z,100807
2018-02-20T02:01:11.812Z,100804
2018-02-20T02:03:40.069Z,100799
2018-02-20T02:06:09.137Z,100798
2018-02-20T02:08:37.418Z,100799
2018-02-20T02:11:05.680Z,100795
2018-02-20T02:13:33.992Z,100792
2018-02-20T02:16:03.100Z,100786
2018-02-20T02:18:31.432Z,100784
2018-02-20T02:20:59.671Z,100785
2018-02-20T02:23:28.702Z,100788
2018-02-20T02:25:57.040Z,100785
2018-02-20T02:28:25.321Z,100788
2018-02-20T02:30:53.580Z,100784
2018-02-20T02:33:21.866Z,100790
2018-02-20T02:35:50.119Z,100779
2018-02-20T02:38:18.432Z,100783
2018-02-20T02:40:46.770Z,100782
2018-02-20T02:43:15.793Z,100779
2018-02-20T02:45:44.033Z,100777
2018-02-20T02:48:13.223Z,100779
2018-02-20T02:50:41.464Z,100789
2018-02-20T02:53:09.699Z,100775
2018-02-20T02:55:37.976Z,100776
2018-02-20T02:58:06.197Z,100778
2018-02-20T03:00:34.483Z,100776
2018-02-20T03:03:02.715Z,100777
2018-02-20T03:05:30.954Z,100771
2018-02-20T03:08:00.003Z,100783
2018-02-20T03:10:28.423Z,100786
2018-02-20T03:12:57.461Z,100782
2018-02-20T03:15:25.724Z,100781
2018-02-20T03:17:53.992Z,100784
2018-02-20T03:20:22.226Z,100783
2018-02-20T03:22:50.443Z,100793
2018-02-20T03:25:19.621Z,100780
2018-02-20T03:27:48.647Z,100779
2018-02-20T03:30:16.919Z,100781
2018-02-20T03:32:45.211Z,100779
2018-02-20T03:35:13.473Z,100771
2018-02-20T03:37:41.710Z,100783
2018-02-20T03:40:10.779Z,100774
2018-02-20T03:42:39.034Z,100770
2018-02-20T03:45:07.569Z,100773
2018-02-20T03:47:35.979Z,100772
2018-02-20T03:50:04.246Z,100769
2018-02-20T03:52:32.539Z,100774
2018-02-20T03:55:01.006Z,100777
2018-02-20T03:57:29.262Z,100773
2018-02-20T03:59:57.515Z,100785
2018-02-20T04:02:25.881Z,100786
2018-02-20T04:04:54.114Z,100784
2018-02-20T04:07:22.381Z,100782
2018-02-20T04:09:50.736Z,100784
2018-02-20T04:12:19.735Z,100783
2018-02-20T04:14:48.041Z,100784
2018-02-20T04:17:16.333Z,100776
2018-02-20T04:19:44.680Z,100776
2018-02-20T04:22:12.993Z,100777
2018-02-20T04:24:41.244Z,100769
2018-02-20T04:27:09.477Z,100781
2018-02-20T04:29:37.744Z,100777
2018-02-20T04:32:06.001Z,100775
2018-02-20T04:34:34.226Z,100776
2018-02-20T04:37:02.546Z,100769
2018-02-20T04:39:30.796Z,100777
2018-02-20T04:41:59.470Z,100764
2018-02-20T04:44:28.425Z,100777
2018-02-20T04:46:56.680Z,100769
2018-02-20T04:49:24.915Z,100763
2018-02-20T04:51:53.182Z,100769
2018-02-20T04:54:21.471Z,100772
2018-02-20T04:56:49.816Z,100770
2018-02-20T04:59:18.816Z,100764
2018-02-20T05:01:50.689Z,100775
2018-02-20T05:04:18.932Z,100780
2018-02-20T05:06:47.206Z,100769
2018-02-20T05:09:15.506Z,100779
2018-02-20T05:11:43.760Z,100781
2018-02-20T05:14:12.081Z,100770
2018-02-20T05:16:40.345Z,100773
2018-02-20T05:19:08.592Z,100771
2018-02-20T05:21:37.242Z,100777
2018-02-20T05:24:05.472Z,100764
2018-02-20T05:26:33.832Z,100769
2018-02-20T05:29:02.194Z,100768
2018-02-20T05:31:30.487Z,100773
2018-02-20T05:33:59.527Z,100767
2018-02-20T05:36:28.249Z,100779
2018-02-20T05:38:56.489Z,100779
2018-02-20T05:41:24.801Z,100774
2018-02-20T05:43:53.135Z,100781
2018-02-20T05:46:21.448Z,100783
2018-02-20T05:48:49.673Z,100788
2018-02-20T05:51:17.930Z,100794
2018-02-20T05:53:47.016Z,100785
2018-02-20T05:56:16.036Z,100793
2018-02-20T05:58:44.285Z,100798
2018-02-20T06:01:12.548Z,100795
2018-02-20T06:03:40.834Z,100804
2018-02-20T06:06:10.254Z,100799
2018-02-20T06:08:39.342Z,100804
2018-02-20T06:11:08.531Z,100800
2018-02-20T06:13:37.565Z,100790
2018-02-20T06:16:05.826Z,100797
2018-02-20T06:18:34.131Z,100801
2018-02-20T06:21:02.376Z,100802
2018-02-20T06:23:30.614Z,100801
2018-02-20T06:25:58.926Z,100816
2018-02-20T06:28:27.194Z,100801
2018-02-20T06:30:56.185Z,100800
2018-02-20T06:33:25.266Z,100802
2018-02-20T06:35:53.634Z,100800
2018-02-20T06:38:22.678Z,100797
2018-02-20T06:40:51.054Z,100799
2018-02-20T06:43:19.306Z,100801
2018-02-20T06:45:48.304Z,100794
2018-02-20T06:48:17.397Z,100795
2018-02-20T06:50:45.710Z,100797
2018-02-20T06:53:13.926Z,100800
2018-02-20T06:55:42.431Z,100802
2018-02-20T06:58:10.702Z,100797
2018-02-20T07:00:39.728Z,100802
2018-02-20T07:03:08.161Z,100808
2018-02-20T07:05:37.236Z,100804
2018-02-20T07:08:05.524Z,100800
2018-02-20T07:10:35.658Z,100806
2018-02-20T07:13:04.715Z,100807
2018-02-20T07:15:32.985Z,100809
2018-02-20T07:18:01.292Z,100796
2018-02-20T07:20:30.302Z,100810
2018-02-20T07:22:58.628Z,100809
2018-02-20T07:25:26.881Z,100805
2018-02-20T07:27:55.166Z,100800
2018-02-20T07:30:23.485Z,100800
2018-02-20T07:32:51.762Z,100803
2018-02-20T07:35:20.046Z,100800
2018-02-20T07:37:48.370Z,100794
2018-02-20T07:40:16.647Z,100801
2018-02-20T07:42:44.942Z,100796
2018-02-20T07:45:13.238Z,100802
2018-02-20T07:47:42.341Z,100798
2018-02-20T07:50:10.689Z,100804
2018-02-20T07:52:38.943Z,100807
2018-02-20T07:55:07.181Z,100808
2018-02-20T07:57:36.244Z,100804
2018-02-20T08:00:04.594Z,100806
2018-02-20T08:02:32.829Z,100817
2018-02-20T08:05:02.002Z,100811
2018-02-20T08:07:30.259Z,100812
2018-02-20T08:09:58.545Z,100810
2018-02-20T08:12:26.861Z,100811
2018-02-20T08:14:55.116Z,100821
2018-02-20T08:17:23.365Z,100817
2018-02-20T08:19:51.646Z,100816
2018-02-20T08:22:19.988Z,100814
2018-02-20T08:24:48.291Z,100818
2018-02-20T08:27:16.568Z,100813
2018-02-20T08:29:44.811Z,100816
2018-02-20T08:32:13.169Z,100822
2018-02-20T08:34:42.163Z,100822
2018-02-20T08:37:10.499Z,100830
2018-02-20T08:39:38.800Z,100827
2018-02-20T08:42:07.845Z,100819
2018-02-20T08:44:36.115Z,100827
2018-02-20T08:47:04.550Z,100822
2018-02-20T08:49:33.606Z,100811
2018-02-20T08:52:01.884Z,100820
2018-02-20T08:54:30.193Z,100818
2018-02-20T08:56:58.550Z,100815
2018-02-20T08:59:26.816Z,100812
2018-02-20T09:01:55.076Z,100816
2018-02-20T09:04:23.392Z,100802
2018-02-20T09:06:51.667Z,100802
2018-02-20T09:09:20.171Z,100807
2018-02-20T09:11:48.487Z,100807
2018-02-20T09:14:16.778Z,100805
2018-02-20T09:16:45.132Z,100808
2018-02-20T09:19:13.438Z,100798
2018-02-20T09:21:41.696Z,100799
2018-02-20T09:24:10.052Z,100792
2018-02-20T09:26:38.301Z,100796
2018-02-20T09:29:07.405Z,100798
2018-02-20T09:31:36.447Z,100799
2018-02-20T09:34:04.687Z,100803
2018-02-20T09:36:33.057Z,100800
2018-02-20T09:39:01.344Z,100797
2018-02-20T09:41:29.740Z,100800
2018-02-20T09:43:58.020Z,100799
2018-02-20T09:46:26.384Z,100796
2018-02-20T09:48:54.643Z,100797
2018-02-20T09:51:23.730Z,100791
2018-02-20T09:53:52.013Z,100793
2018-02-20T09:56:20.290Z,100796
2018-02-20T09:58:48.793Z,100794
2018-02-20T10:01:17.166Z,100795
2018-02-20T10:03:45.400Z,100793
2018-02-20T10:06:14.534Z,100797
2018-02-20T10:08:42.839Z,100797
2018-02-20T10:11:11.140Z,100789
2018-02-20T10:13:40.251Z,100797
2018-02-20T10:16:09.256Z,100792
2018-02-20T10:18:37.577Z,100787
2018-02-20T10:21:05.879Z,100783
2018-02-20T10:23:34.238Z,100785
2018-02-20T10:26:02.482Z,100787
2018-02-20T10:28:30.808Z,100796
2018-02-20T10:30:59.102Z,100788
2018-02-20T10:33:27.429Z,100783
2018-02-20T10:35:55.739Z,100785
2018-02-20T10:38:24.008Z,100781
2018-02-20T10:40:53.158Z,100777
2018-02-20T10:43:21.632Z,100773
2018-02-20T10:45:49.914Z,100778
2018-02-20T10:48:18.209Z,100769
2018-02-20T10:50:46.617Z,100770
2018-02-20T10:53:14.850Z,100760
2018-02-20T10:55:43.248Z,100754
2018-02-20T10:58:11.540Z,100764
2018-02-20T11:00:39.830Z,100766
2018-02-20T11:03:08.131Z,100765
2018-02-20T11:05:36.404Z,100754
2018-02-20T11:08:05.414Z,100752
2018-02-20T11:10:33.747Z,100753
2018-02-20T11:13:02.251Z,100753
2018-02-20T11:15:30.618Z,100759
2018-02-20T11:17:58.943Z,100751
2018-02-20T11:20:27.183Z,100748
2018-02-20T11:22:55.411Z,100754
2018-02-20T11:25:23.713Z,100751
2018-02-20T11:27:52.016Z,100745
2018-02-20T11:30:20.278Z,100747
2018-02-20T11:32:48.590Z,100748
2018-02-20T11:35:16.892Z,100744
2018-02-20T11:37:45.172Z,100743
2018-02-20T11:40:13.894Z,100740
2018-02-20T11:42:43.008Z,100734
2018-02-20T11:45:11.267Z,100728
2018-02-20T11:47:40.368Z,100733
2018-02-20T11:50:09.473Z,100719
2018-02-20T11:52:37.846Z,100719
2018-02-20T11:55:06.104Z,100724
2018-02-20T11:57:35.232Z,100722
2018-02-20T12:00:03.479Z,100714
2018-02-20T12:02:31.764Z,100716
2018-02-20T12:05:00.951Z,100705
2018-02-20T12:07:30.167Z,100709
2018-02-20T12:10:07.663Z,100709
2018-02-20T12:12:37.565Z,100701
2018-02-20T12:15:08.487Z,100706
2018-02-20T12:17:36.839Z,100702
2018-02-20T12:20:05.983Z,100697
2018-02-20T12:22:35.042Z,100695
2018-02-20T12:25:03.330Z,100691
2018-02-20T12:27:31.638Z,100693
2018-02-20T12:29:59.960Z,100695
2018-02-20T12:32:28.240Z,100686
2018-02-20T12:34:56.500Z,100696
2018-02-20T12:37:24.819Z,100692
2018-02-20T12:39:53.903Z,100680
2018-02-20T12:42:22.266Z,100692
2018-02-20T12:44:50.632Z,100685
2018-02-20T12:47:18.961Z,100679
2018-02-20T12:49:48.130Z,100687
2018-02-20T12:52:16.924Z,100684
2018-02-20T12:54:45.286Z,100678
2018-02-20T12:57:13.638Z,100679
2018-02-20T12:59:41.933Z,100681
2018-02-20T13:02:10.334Z,100681
2018-02-20T13:04:39.233Z,100681
2018-02-20T13:07:07.665Z,100676
2018-02-20T13:09:36.069Z,100681
2018-02-20T13:12:04.431Z,100672
2018-02-20T13:14:32.809Z,100668
2018-02-20T13:17:01.246Z,100664
2018-02-20T13:19:29.635Z,100669
2018-02-20T13:21:58.013Z,100667
2018-02-20T13:24:26.323Z,100665
2018-02-20T13:26:54.828Z,100669
2018-02-20T13:29:23.426Z,100668
2018-02-20T13:31:51.820Z,100662
2018-02-20T13:34:20.169Z,100655
2018-02-20T13:36:48.497Z,100669
2018-02-20T13:39:16.849Z,100670
2018-02-20T13:41:45.282Z,100675
2018-02-20T13:44:13.583Z,100670
2018-02-20T13:46:42.046Z,100662
2018-02-20T13:49:11.088Z,100670
2018-02-20T13:51:39.411Z,100667
2018-02-20T13:54:08.864Z,100667
2018-02-20T13:56:37.428Z,100661
2018-02-20T13:59:06.673Z,100665
2018-02-20T14:01:35.410Z,100661
2018-02-20T14:04:04.024Z,100656
2018-02-20T14:06:32.505Z,100660
2018-02-20T14:09:00.846Z,100666
2018-02-20T14:11:29.881Z,100661
2018-02-20T14:13:58.343Z,100665
2018-02-20T14:16:26.906Z,100666
2018-02-20T14:18:55.953Z,100664
2018-02-20T14:21:24.341Z,100666
2018-02-20T14:23:52.737Z,100669
2018-02-20T14:26:21.393Z,100671
2018-02-20T14:28:50.017Z,100682
2018-02-20T14:31:18.395Z,100669
2018-02-20T14:33:47.440Z,100676
2018-02-20T14:36:15.927Z,100670
2018-02-20T14:38:44.327Z,100674
2018-02-20T14:41:12.602Z,100667
2018-02-20T14:43:41.209Z,100664
2018-02-20T14:46:10.463Z,100668
2018-02-20T14:48:39.836Z,100666
2018-02-20T14:51:08.862Z,100659
2018-02-20T14:53:37.220Z,100660
2018-02-20T14:56:05.986Z,100658
2018-02-20T14:58:34.376Z,100659
2018-02-20T15:01:03.557Z,100660
2018-02-20T15:03:32.036Z,100664
2018-02-20T15:06:00.492Z,100666
2018-02-20T15:08:29.107Z,100663
2018-02-20T15:10:58.450Z,100664
2018-02-20T15:13:27.191Z,100654
2018-02-20T15:15:55.698Z,100664
2018-02-20T15:18:25.586Z,100667
2018-02-20T15:20:54.060Z,100669
2018-02-20T15:23:22.618Z,100682
2018-02-20T15:25:51.513Z,100675
2018-02-20T15:28:20.966Z,100675
2018-02-20T15:30:49.885Z,100676
2018-02-20T15:33:18.174Z,100674
2018-02-20T15:35:46.504Z,100685
2018-02-20T15:38:15.617Z,100688
2018-02-20T15:40:44.797Z,100701
2018-02-20T15:43:13.144Z,100695
2018-02-20T15:45:41.621Z,100703
2018-02-20T15:48:09.950Z,100705
2018-02-20T15:50:38.427Z,100704
2018-02-20T15:53:06.887Z,100717
2018-02-20T15:55:35.249Z,100710
2018-02-20T15:58:04.698Z,100718
2018-02-20T16:00:33.198Z,100719
2018-02-20T16:03:01.681Z,100716
2018-02-20T16:05:30.829Z,100720
2018-02-20T16:07:59.279Z,100730
2018-02-20T16:10:27.783Z,100725
2018-02-20T16:12:57.687Z,100725
2018-02-20T16:15:26.856Z,100726
2018-02-20T16:17:55.327Z,100735
2018-02-20T16:20:23.763Z,100737
2018-02-20T16:22:52.396Z,100734
2018-02-20T16:25:21.748Z,100737
2018-02-20T16:27:50.839Z,100736
2018-02-20T16:30:19.476Z,100741
2018-02-20T16:32:47.798Z,100738
2018-02-20T16:35:16.057Z,100739
2018-02-20T16:37:44.871Z,100728
2018-02-20T16:40:13.545Z,100744
2018-02-20T16:42:42.653Z,100738
2018-02-20T16:45:11.146Z,100736
2018-02-20T16:47:39.752Z,100745
2018-02-20T16:50:08.082Z,100746
2018-02-20T16:52:37.390Z,100754
2018-02-20T16:55:05.883Z,100750
2018-02-20T16:57:34.150Z,100748
2018-02-20T17:00:02.541Z,100755
2018-02-20T17:02:30.887Z,100755
2018-02-20T17:05:06.012Z,100754
2018-02-20T17:07:35.042Z,100762
2018-02-20T17:10:03.378Z,100764
2018-02-20T17:12:31.850Z,100763
2018-02-20T17:15:01.087Z,100760
2018-02-20T17:17:29.459Z,100761
2018-02-20T17:19:57.964Z,100764
2018-02-20T17:22:26.297Z,100776
2018-02-20T17:24:54.606Z,100767
2018-02-20T17:27:23.685Z,100776
2018-02-20T17:29:52.845Z,100778
2018-02-20T17:32:21.182Z,100772
2018-02-20T17:34:49.646Z,100778
2018-02-20T17:37:17.942Z,100778
2018-02-20T17:39:46.247Z,100780
2018-02-20T17:42:16.737Z,100780
2018-02-20T17:44:45.042Z,100781
2018-02-20T17:47:13.283Z,100782
2018-02-20T17:49:41.570Z,100785
2018-02-20T17:52:09.799Z,100781
2018-02-20T17:54:38.068Z,100788
2018-02-20T17:57:06.346Z,100777
2018-02-20T17:59:34.619Z,100793
2018-02-20T18:02:03.179Z,100797
2018-02-20T18:04:31.492Z,100790
2018-02-20T18:07:00.528Z,100793
2018-02-20T18:09:28.752Z,100797
2018-02-20T18:11:57.103Z,100803
2018-02-20T18:14:28.298Z,100810
2018-02-20T18:16:56.635Z,100815
2018-02-20T18:19:24.932Z,100803
2018-02-20T18:21:53.199Z,100804
2018-02-20T18:24:21.464Z,100807
2018-02-20T18:26:49.758Z,100811
2018-02-20T18:29:18.014Z,100826
2018-02-20T18:31:46.252Z,100835
2018-02-20T18:34:14.576Z,100848
2018-02-20T18:36:42.888Z,100844
2018-02-20T18:39:11.157Z,100834
2018-02-20T18:41:40.209Z,100832
2018-02-20T18:44:08.456Z,100826
2018-02-20T18:46:36.757Z,100827
2018-02-20T18:49:06.867Z,100827
2018-02-20T18:51:36.653Z,100835
2018-02-20T18:54:04.974Z,100843
2018-02-20T18:56:33.210Z,100853
2018-02-20T18:59:01.523Z,100847
2018-02-20T19:01:29.800Z,100854
2018-02-20T19:03:58.050Z,100851
2018-02-20T19:06:26.380Z,100861
2018-02-20T19:08:54.626Z,100861
2018-02-20T19:11:23.738Z,100854
2018-02-20T19:13:52.944Z,100843
2018-02-20T19:16:21.214Z,100858
2018-02-20T19:18:49.486Z,100859
2018-02-20T19:21:17.868Z,100860
2018-02-20T19:23:46.123Z,100860
2018-02-20T19:26:14.438Z,100850
2018-02-20T19:28:43.550Z,100859
2018-02-20T19:31:11.897Z,100857
2018-02-20T19:33:40.197Z,100857
2018-02-20T19:36:09.313Z,100861
2018-02-20T19:38:37.698Z,100863
2018-02-20T19:41:06.004Z,100865
2018-02-20T19:43:35.606Z,100856
2018-02-20T19:46:03.887Z,100863
2018-02-20T19:48:32.133Z,100878
2018-02-20T19:51:01.438Z,100873
2018-02-20T19:53:29.747Z,100880
2018-02-20T19:55:58.007Z,100875
2018-02-20T19:58:26.327Z,100875
2018-02-20T20:00:55.502Z,100876
2018-02-20T20:03:23.793Z,100877
2018-02-20T20:05:52.922Z,100865
2018-02-20T20:08:21.211Z,100874
2018-02-20T20:10:49.494Z,100879
2018-02-20T20:13:18.566Z,100871
2018-02-20T20:15:46.803Z,100885
2018-02-20T20:18:15.046Z,100883
2018-02-20T20:20:47.937Z,100885
2018-02-20T20:23:11.662Z,100886
2018-02-20T20:25:39.935Z,100888
2018-02-20T20:28:08.456Z,100887
2018-02-20T20:30:36.789Z,100889
2018-02-20T20:33:05.834Z,100890
2018-02-20T20:35:34.196Z,100891
2018-02-20T20:38:02.481Z,100889
2018-02-20T20:40:31.514Z,100887
2018-02-20T20:43:00.594Z,100885
2018-02-20T20:45:28.905Z,100869
2018-02-20T20:47:57.149Z,100871
2018-02-20T20:50:25.428Z,100872
2018-02-20T20:52:53.738Z,100872
2018-02-20T20:55:22.072Z,100878
2018-02-20T20:57:50.392Z,100880
2018-02-20T21:00:18.681Z,100882
2018-02-20T21:02:46.941Z,100881
2018-02-20T21:05:15.365Z,100874
2018-02-20T21:07:43.713Z,100871
2018-02-20T21:10:11.967Z,100866
2018-02-20T21:12:40.956Z,100853
2018-02-20T21:15:10.033Z,100863
2018-02-20T21:17:39.071Z,100868
2018-02-20T21:20:07.337Z,100875
2018-02-20T21:22:35.602Z,100878
2018-02-20T21:25:03.876Z,100889
2018-02-20T21:27:32.254Z,100884
2018-02-20T21:30:00.544Z,100883
2018-02-20T21:32:29.018Z,100890
2018-02-20T21:34:57.471Z,100892
2018-02-20T21:37:25.909Z,100898
2018-02-20T21:39:54.248Z,100886
2018-02-20T21:42:22.563Z,100886
2018-02-20T21:44:50.922Z,100872
2018-02-20T21:47:19.206Z,100858
2018-02-20T21:49:47.466Z,100863
2018-02-20T21:52:15.757Z,100873
2018-02-20T21:54:43.998Z,100876
2018-02-20T21:57:13.099Z,100872
2018-02-20T21:59:41.507Z,100876
2018-02-20T22:02:09.802Z,100866
2018-02-20T22:04:39.002Z,100871
2018-02-20T22:07:07.254Z,100878
2018-02-20T22:09:35.532Z,100879
2018-02-20T22:12:03.823Z,100884
2018-02-20T22:14:32.078Z,100896
2018-02-20T22:17:00.488Z,100891
2018-02-20T22:19:28.763Z,100890
2018-02-20T22:21:57.013Z,100887
2018-02-20T22:24:25.299Z,100890
2018-02-20T22:26:53.541Z,100892
2018-02-20T22:29:21.908Z,100899
2018-02-20T22:31:50.924Z,100896
2018-02-20T22:34:19.220Z,100898
2018-02-20T22:36:47.527Z,100899
2018-02-20T22:39:15.777Z,100898
2018-02-20T22:41:44.117Z,100886
2018-02-20T22:44:12.456Z,100885
2018-02-20T22:46:40.769Z,100886
2018-02-20T22:49:09.008Z,100867
2018-02-20T22:51:37.257Z,100882
2018-02-20T22:54:05.564Z,100879
2018-02-20T22:56:33.882Z,100876
2018-02-20T22:59:02.159Z,100875
2018-02-20T23:01:30.668Z,100879
2018-02-20T23:03:58.918Z,100892
2018-02-20T23:06:27.180Z,100883
2018-02-20T23:08:55.462Z,100875
2018-02-20T23:11:41.585Z,100874
2018-02-20T23:14:09.890Z,100885
2018-02-20T23:16:38.909Z,100878
2018-02-20T23:19:08.010Z,100882
2018-02-20T23:21:37.067Z,100875
2018-02-20T23:24:05.340Z,100882
2018-02-20T23:26:33.946Z,100872
2018-02-20T23:29:02.300Z,100869
2018-02-20T23:31:30.588Z,100869
2018-02-20T23:33:58.945Z,100868
2018-02-20T23:36:27.237Z,100867
2018-02-20T23:38:55.501Z,100873
2018-02-20T23:41:23.721Z,100881
2018-02-20T23:43:52.000Z,100878
2018-02-20T23:46:20.272Z,100878
2018-02-20T23:48:49.808Z,100888
2018-02-20T23:51:23.808Z,100885
2018-02-20T23:53:52.087Z,100887
2018-02-20T23:56:20.361Z,100886
2018-02-20T23:58:49.306Z,100889
